createdAt,value
2019-04-26T00:03:44.882Z,1.70
2019-04-26T00:08:54.571Z,2.00
2019-04-26T00:14:21.080Z,1.23
2019-04-26T00:19:25.810Z,2.00
2019-04-26T00:24:31.661Z,1.60
2019-04-26T00:29:36.376Z,1.40
2019-04-26T00:34:42.485Z,1.77
2019-04-26T00:39:47.140Z,1.73
2019-04-26T00:44:51.879Z,1.60
2019-04-26T00:49:56.635Z,1.60
2019-04-26T00:55:01.673Z,1.63
2019-04-26T01:00:10.108Z,1.70
2019-04-26T01:05:17.001Z,1.93
2019-04-26T01:10:21.700Z,1.40
2019-04-26T01:15:26.746Z,1.33
2019-04-26T01:20:31.287Z,1.23
2019-04-26T01:25:53.306Z,1.50
2019-04-26T01:30:57.854Z,1.50
2019-04-26T01:36:12.362Z,1.90
2019-04-26T01:41:12.954Z,1.70
2019-04-26T01:46:25.252Z,1.50
2019-04-26T01:51:35.042Z,1.30
2019-04-26T01:56:39.639Z,1.30
2019-04-26T02:02:02.330Z,1.50
2019-04-26T02:07:07.622Z,1.33
2019-04-26T02:12:12.198Z,1.43
2019-04-26T02:17:16.814Z,1.50
2019-04-26T02:22:28.237Z,1.50
2019-04-26T02:27:34.562Z,1.90
2019-04-26T02:32:39.319Z,1.30
2019-04-26T02:37:44.155Z,1.37
2019-04-26T02:42:50.139Z,1.33
2019-04-26T02:48:13.674Z,1.30
2019-04-26T02:53:37.488Z,1.60
2019-04-26T02:58:46.771Z,1.47
2019-04-26T03:03:53.631Z,1.30
2019-04-26T03:08:58.001Z,1.20
2019-04-26T03:14:31.243Z,1.50
2019-04-26T03:20:02.580Z,1.30
2019-04-26T03:25:14.989Z,1.40
2019-04-26T03:30:26.498Z,1.23
2019-04-26T03:35:57.827Z,1.30
2019-04-26T03:41:08.052Z,1.77
2019-04-26T03:46:28.541Z,1.13
2019-04-26T03:51:48.276Z,1.30
2019-04-26T03:57:13.367Z,1.40
2019-04-26T04:02:36.640Z,1.20
2019-04-26T04:07:48.079Z,1.30
2019-04-26T04:12:51.982Z,1.20
2019-04-26T04:18:01.334Z,1.27
2019-04-26T04:23:12.402Z,1.30
2019-04-26T04:28:20.632Z,1.10
2019-04-26T04:33:29.725Z,1.40
2019-04-26T04:38:55.043Z,1.20
2019-04-26T04:44:21.051Z,1.33
2019-04-26T04:49:41.188Z,1.27
2019-04-26T04:55:01.653Z,1.37
2019-04-26T05:00:18.367Z,1.50
2019-04-26T05:06:06.629Z,1.37
2019-04-26T05:11:08.092Z,1.30
2019-04-26T05:16:24.613Z,1.40
2019-04-26T05:21:45.334Z,1.60
2019-04-26T05:27:26.618Z,1.50
2019-04-26T05:32:47.245Z,1.60
2019-04-26T05:37:59.081Z,1.10
2019-04-26T05:43:33.909Z,1.20
2019-04-26T05:49:05.009Z,1.10
2019-04-26T05:54:49.618Z,2.67
2019-04-26T06:00:22.554Z,1.90
2019-04-26T06:05:54.394Z,1.20
2019-04-26T06:11:06.758Z,0.90
2019-04-26T06:16:24.042Z,1.00
2019-04-26T06:21:31.045Z,0.80
2019-04-26T06:27:14.581Z,1.20
2019-04-26T06:32:38.624Z,0.70
2019-04-26T06:37:57.442Z,0.83
2019-04-26T06:43:29.309Z,1.00
2019-04-26T06:48:47.053Z,0.70
2019-04-26T06:54:12.294Z,0.70
2019-04-26T06:59:35.823Z,1.23
2019-04-26T07:05:08.581Z,0.90
2019-04-26T07:10:36.110Z,1.00
2019-04-26T07:15:58.732Z,1.00
2019-04-26T07:21:20.395Z,1.17
2019-04-26T07:26:50.268Z,1.00
2019-04-26T07:32:00.886Z,1.20
2019-04-26T07:37:28.328Z,0.80
2019-04-26T07:42:57.862Z,0.90
2019-04-26T07:48:25.240Z,0.67
2019-04-26T07:53:55.195Z,1.10
2019-04-26T07:59:18.165Z,0.80
2019-04-26T08:04:29.566Z,1.20
2019-04-26T08:09:35.097Z,1.10
2019-04-26T08:14:56.994Z,0.77
2019-04-26T08:20:28.187Z,1.00
2019-04-26T08:25:32.467Z,1.30
2019-04-26T08:30:44.450Z,1.17
2019-04-26T08:35:48.959Z,1.40
2019-04-26T08:40:56.397Z,1.70
2019-04-26T08:46:17.805Z,1.70
2019-04-26T08:51:22.888Z,1.43
2019-04-26T08:56:29.818Z,1.50
2019-04-26T09:01:50.907Z,1.40
2019-04-26T09:07:21.019Z,2.10
2019-04-26T09:12:25.897Z,1.67
2019-04-26T09:17:32.621Z,1.80
2019-04-26T09:22:48.685Z,1.60
2019-04-26T09:28:12.490Z,1.80
2019-04-26T09:33:22.269Z,2.00
2019-04-26T09:38:28.511Z,1.40
2019-04-26T09:43:41.188Z,2.20
2019-04-26T09:48:55.363Z,1.87
2019-04-26T09:53:59.909Z,2.20
2019-04-26T09:59:05.869Z,1.70
2019-04-26T10:04:11.487Z,1.80
2019-04-26T10:09:21.390Z,1.70
2019-04-26T10:14:46.415Z,1.60
2019-04-26T10:19:53.025Z,2.13
2019-04-26T10:24:57.639Z,2.07
2019-04-26T10:30:08.890Z,1.53
2019-04-26T10:35:11.162Z,1.80
2019-04-26T10:40:16.990Z,1.87
2019-04-26T10:45:22.650Z,2.00
2019-04-26T10:50:32.896Z,1.90
2019-04-26T10:56:12.255Z,1.70
2019-04-26T11:01:18.817Z,1.90
2019-04-26T11:06:24.086Z,1.90
2019-04-26T11:11:29.774Z,2.00
2019-04-26T11:16:37.235Z,1.93
2019-04-26T11:21:41.695Z,2.13
2019-04-26T11:26:46.224Z,2.27
2019-04-26T11:31:54.147Z,1.80
2019-04-26T11:36:58.895Z,2.07
2019-04-26T11:42:07.942Z,2.00
2019-04-26T11:47:12.358Z,1.57
2019-04-26T11:52:16.960Z,2.40
2019-04-26T11:57:21.503Z,1.70
2019-04-26T12:02:27.096Z,2.33
2019-04-26T12:07:42.611Z,1.90
2019-04-26T12:12:51.705Z,2.00
2019-04-26T12:17:58.739Z,1.83
2019-04-26T12:23:02.800Z,2.17
2019-04-26T12:28:07.589Z,2.07
2019-04-26T12:33:13.794Z,1.63
2019-04-26T12:38:18.543Z,2.10
2019-04-26T12:43:24.632Z,2.07
2019-04-26T12:48:30.334Z,2.57
2019-04-26T12:53:35.648Z,2.53
2019-04-26T12:58:40.193Z,2.70
2019-04-26T13:03:52.874Z,2.90
2019-04-26T13:08:57.412Z,2.70
2019-04-26T13:14:10.015Z,2.30
2019-04-26T13:19:16.051Z,3.23
2019-04-26T13:24:22.411Z,2.57
2019-04-26T13:29:30.825Z,2.63
2019-04-26T13:34:37.233Z,2.37
2019-04-26T13:39:39.829Z,2.63
2019-04-26T13:44:55.216Z,2.50
2019-04-26T13:50:12.846Z,2.83
2019-04-26T13:55:18.190Z,2.30
2019-04-26T14:00:25.865Z,2.33
2019-04-26T14:05:31.071Z,2.70
2019-04-26T14:10:36.685Z,2.10
2019-04-26T14:15:44.025Z,1.97
2019-04-26T14:20:48.702Z,2.23
2019-04-26T14:26:01.103Z,2.30
2019-04-26T14:31:04.758Z,2.10
2019-04-26T14:36:17.509Z,1.90
2019-04-26T14:41:21.915Z,2.00
2019-04-26T14:46:23.006Z,2.17
2019-04-26T14:51:27.730Z,1.50
2019-04-26T14:56:32.241Z,1.47
2019-04-26T15:01:49.306Z,1.40
2019-04-26T15:06:58.162Z,1.50
2019-04-26T15:12:01.882Z,1.47
2019-04-26T15:17:06.761Z,1.60
2019-04-26T15:22:12.190Z,1.27
2019-04-26T15:27:16.954Z,1.60
2019-04-26T15:32:21.505Z,0.90
2019-04-26T15:37:28.363Z,1.03
2019-04-26T15:42:58.902Z,1.17
2019-04-26T15:48:12.111Z,0.90
2019-04-26T15:53:17.165Z,0.80
2019-04-26T15:58:21.689Z,0.50
2019-04-26T16:03:29.270Z,0.70
2019-04-26T16:08:42.403Z,0.70
2019-04-26T16:13:46.659Z,0.60
2019-04-26T16:18:53.376Z,0.60
2019-04-26T16:23:56.706Z,0.60
2019-04-26T16:29:19.774Z,0.70
2019-04-26T16:34:27.555Z,0.60
2019-04-26T16:39:38.911Z,0.60
2019-04-26T16:44:44.967Z,0.57
2019-04-26T16:49:48.567Z,0.70
2019-04-26T16:55:02.508Z,0.83
2019-04-26T17:00:04.238Z,0.67
2019-04-26T17:05:19.208Z,0.73
2019-04-26T17:10:20.716Z,0.70
2019-04-26T17:15:24.419Z,0.80
2019-04-26T17:20:29.149Z,0.90
2019-04-26T17:26:09.489Z,0.70
2019-04-26T17:31:14.111Z,0.70
2019-04-26T17:36:19.822Z,0.80
2019-04-26T17:41:24.345Z,0.80
2019-04-26T17:46:28.895Z,0.70
2019-04-26T17:51:41.864Z,0.90
2019-04-26T17:56:42.240Z,0.83
2019-04-26T18:01:51.998Z,0.70
2019-04-26T18:07:02.869Z,0.87
2019-04-26T18:12:03.467Z,0.60
2019-04-26T18:17:23.167Z,0.60
2019-04-26T18:22:38.902Z,0.67
2019-04-26T18:27:45.085Z,0.50
2019-04-26T18:32:49.958Z,0.60
2019-04-26T18:37:57.561Z,0.53
2019-04-26T18:43:03.401Z,0.80
2019-04-26T18:48:09.437Z,1.00
2019-04-26T18:53:36.549Z,0.70
2019-04-26T18:58:38.457Z,0.70
2019-04-26T19:03:43.700Z,0.90
2019-04-26T19:08:52.266Z,0.70
2019-04-26T19:14:15.201Z,0.70
2019-04-26T19:19:33.197Z,0.80
2019-04-26T19:24:38.719Z,0.60
2019-04-26T19:29:43.448Z,0.50
2019-04-26T19:34:47.964Z,0.70
2019-04-26T19:39:52.594Z,0.70
2019-04-26T19:45:11.664Z,0.80
2019-04-26T19:50:22.701Z,0.70
2019-04-26T19:55:33.644Z,0.87
2019-04-26T20:00:38.507Z,0.80
2019-04-26T20:05:46.059Z,0.80
2019-04-26T20:10:52.089Z,0.80
2019-04-26T20:15:57.416Z,0.80
2019-04-26T20:21:06.610Z,0.70
2019-04-26T20:26:12.015Z,0.80
2019-04-26T20:31:44.900Z,0.80
2019-04-26T20:36:47.784Z,1.00
2019-04-26T20:42:01.263Z,0.90
2019-04-26T20:46:59.761Z,0.80
2019-04-26T20:52:05.193Z,0.83
2019-04-26T20:57:12.373Z,1.00
2019-04-26T21:02:20.933Z,1.40
2019-04-26T21:07:24.909Z,1.17
2019-04-26T21:12:31.348Z,0.90
2019-04-26T21:17:37.070Z,0.97
2019-04-26T21:22:42.009Z,1.10
2019-04-26T21:28:08.065Z,1.30
2019-04-26T21:33:39.038Z,1.80
2019-04-26T21:38:55.555Z,1.57
2019-04-26T21:44:03.013Z,1.13
2019-04-26T21:49:08.417Z,1.20
2019-04-26T21:54:14.466Z,1.50
2019-04-26T21:59:20.518Z,1.40
2019-04-26T22:04:28.743Z,1.40
2019-04-26T22:09:55.410Z,1.30
2019-04-26T22:15:18.169Z,1.50
2019-04-26T22:20:44.807Z,1.23
2019-04-26T22:25:50.777Z,1.20
2019-04-26T22:30:59.328Z,1.30
2019-04-26T22:36:04.173Z,1.33
2019-04-26T22:41:09.705Z,1.30
2019-04-26T22:46:44.393Z,1.60
2019-04-26T22:51:38.326Z,1.37
2019-04-26T22:56:43.869Z,1.40
2019-04-26T23:01:49.758Z,1.53
2019-04-26T23:06:56.546Z,1.70
2019-04-26T23:12:19.537Z,1.70
2019-04-26T23:17:37.802Z,1.60
2019-04-26T23:22:43.138Z,1.83
2019-04-26T23:27:50.474Z,1.47
2019-04-26T23:32:54.892Z,1.73
2019-04-26T23:38:00.928Z,1.70
2019-04-26T23:43:05.937Z,1.87
2019-04-26T23:48:12.084Z,2.30
2019-04-26T23:53:20.220Z,2.03
2019-04-26T23:58:23.282Z,2.10
